createdAt,value
2022-11-14T00:00:29.325Z,98800.03
2022-11-14T00:03:00.545Z,98805.28
2022-11-14T00:05:27.592Z,98795.75
2022-11-14T00:07:54.130Z,98800.97
2022-11-14T00:10:21.010Z,98801.88
2022-11-14T00:12:47.774Z,98786.16
2022-11-14T00:15:14.907Z,98792.28
2022-11-14T00:17:41.567Z,98791.47
2022-11-14T00:20:09.798Z,98793.19
2022-11-14T00:22:36.566Z,98785.59
2022-11-14T00:25:03.953Z,98790.00
2022-11-14T00:27:30.533Z,98779.63
2022-11-14T00:29:57.192Z,98788.09
2022-11-14T00:32:24.149Z,98775.09
2022-11-14T00:34:50.616Z,98783.03
2022-11-14T00:37:17.264Z,98781.09
2022-11-14T00:39:43.937Z,98776.94
2022-11-14T00:42:10.498Z,98768.03
2022-11-14T00:44:37.195Z,98770.47
2022-11-14T00:47:03.935Z,98767.91
2022-11-14T00:49:30.672Z,98766.25
2022-11-14T00:51:57.282Z,98754.75
2022-11-14T00:54:23.979Z,98760.81
2022-11-14T00:56:50.567Z,98756.41
2022-11-14T00:59:17.162Z,98748.75
2022-11-14T01:01:43.968Z,98749.53
2022-11-14T01:04:10.603Z,98749.53
2022-11-14T01:06:37.178Z,98747.84
2022-11-14T01:09:03.902Z,98742.72
2022-11-14T01:11:30.702Z,98737.50
2022-11-14T01:13:57.344Z,98737.56
2022-11-14T01:16:23.923Z,98744.50
2022-11-14T01:18:50.635Z,98727.19
2022-11-14T01:21:17.380Z,98723.84
2022-11-14T01:23:44.019Z,98707.53
2022-11-14T01:26:13.453Z,98710.09
2022-11-14T01:28:40.816Z,98717.78
2022-11-14T01:31:22.137Z,98710.88
2022-11-14T01:33:50.581Z,98706.59
2022-11-14T01:36:18.175Z,98710.97
2022-11-14T01:38:45.522Z,98708.22
2022-11-14T01:41:16.637Z,98711.81
2022-11-14T01:43:43.581Z,98706.59
2022-11-14T01:46:22.556Z,98704.91
2022-11-14T01:49:06.759Z,98702.44
2022-11-14T01:51:39.232Z,98701.59
2022-11-14T01:54:11.631Z,98694.66
2022-11-14T01:56:46.938Z,98686.06
2022-11-14T01:59:21.857Z,98686.09
2022-11-14T02:01:50.750Z,98685.22
2022-11-14T02:04:31.142Z,98686.75
2022-11-14T02:07:01.206Z,98670.41
2022-11-14T02:09:31.438Z,98671.41
2022-11-14T02:12:01.130Z,98669.72
2022-11-14T02:14:28.665Z,98670.38
2022-11-14T02:17:22.693Z,98674.59
2022-11-14T02:19:53.937Z,98670.31
2022-11-14T02:22:20.624Z,98666.81
2022-11-14T02:24:47.318Z,98666.78
2022-11-14T02:27:15.412Z,98663.34
2022-11-14T02:29:42.177Z,98657.38
2022-11-14T02:32:10.823Z,98664.25
2022-11-14T02:34:38.271Z,98666.06
2022-11-14T02:37:04.952Z,98673.81
2022-11-14T02:39:31.556Z,98670.34
2022-11-14T02:41:58.234Z,98664.34
2022-11-14T02:44:25.084Z,98658.34
2022-11-14T02:46:51.728Z,98658.34
2022-11-14T02:49:18.327Z,98655.72
2022-11-14T02:51:45.119Z,98654.00
2022-11-14T02:54:11.764Z,98647.06
2022-11-14T02:56:38.476Z,98636.75
2022-11-14T02:59:05.034Z,98635.66
2022-11-14T03:01:31.779Z,98633.94
2022-11-14T03:03:58.352Z,98635.59
2022-11-14T03:06:25.057Z,98630.34
2022-11-14T03:08:51.647Z,98637.16
2022-11-14T03:11:18.379Z,98631.97
2022-11-14T03:13:45.016Z,98626.81
2022-11-14T03:16:13.233Z,98633.59
2022-11-14T03:18:40.235Z,98621.53
2022-11-14T03:21:18.824Z,98621.53
2022-11-14T03:23:45.534Z,98613.81
2022-11-14T03:26:13.670Z,98624.28
2022-11-14T03:28:41.166Z,98619.06
2022-11-14T03:31:10.433Z,98616.50
2022-11-14T03:33:37.488Z,98615.63
2022-11-14T03:36:05.468Z,98611.19
2022-11-14T03:38:33.195Z,98615.28
2022-11-14T03:41:00.570Z,98610.00
2022-11-14T03:43:31.478Z,98615.09
2022-11-14T03:45:59.776Z,98606.31
2022-11-14T03:48:28.218Z,98608.03
2022-11-14T03:50:55.895Z,98613.16
2022-11-14T03:53:23.460Z,98600.38
2022-11-14T03:55:51.496Z,98602.00
2022-11-14T03:58:18.802Z,98596.72
2022-11-14T04:00:45.489Z,98594.94
2022-11-14T04:03:12.299Z,98589.88
2022-11-14T04:05:38.990Z,98584.75
2022-11-14T04:08:06.362Z,98585.72
2022-11-14T04:10:33.129Z,98590.88
2022-11-14T04:12:59.775Z,98581.44
2022-11-14T04:15:26.447Z,98581.44
2022-11-14T04:17:53.198Z,98582.28
2022-11-14T04:20:19.942Z,98573.72
2022-11-14T04:22:46.637Z,98569.31
2022-11-14T04:25:13.404Z,98570.09
2022-11-14T04:27:40.006Z,98564.88
2022-11-14T04:30:07.352Z,98557.03
2022-11-14T04:32:34.039Z,98560.47
2022-11-14T04:35:00.653Z,98562.22
2022-11-14T04:37:27.335Z,98555.25
2022-11-14T04:39:58.766Z,98560.47
2022-11-14T04:42:26.154Z,98550.97
2022-11-14T04:44:52.826Z,98556.06
2022-11-14T04:47:20.616Z,98555.09
2022-11-14T04:49:47.260Z,98552.38
2022-11-14T04:52:13.941Z,98542.75
2022-11-14T04:54:40.770Z,98544.53
2022-11-14T04:57:07.328Z,98537.66
2022-11-14T04:59:33.925Z,98539.47
2022-11-14T05:02:00.610Z,98532.47
2022-11-14T05:04:27.334Z,98533.31
2022-11-14T05:06:54.063Z,98525.53
2022-11-14T05:09:20.711Z,98534.09
2022-11-14T05:11:47.361Z,98525.53
2022-11-14T05:14:14.140Z,98536.00
2022-11-14T05:16:40.846Z,98534.28
2022-11-14T05:19:07.456Z,98540.38
2022-11-14T05:21:34.151Z,98529.19
2022-11-14T05:24:00.984Z,98536.03
2022-11-14T05:26:27.591Z,98524.69
2022-11-14T05:28:54.213Z,98522.00
2022-11-14T05:31:20.967Z,98513.38
2022-11-14T05:33:48.177Z,98516.91
2022-11-14T05:36:16.929Z,98518.56
2022-11-14T05:38:44.169Z,98511.56
2022-11-14T05:41:14.085Z,98522.66
2022-11-14T05:43:41.489Z,98512.28
2022-11-14T05:46:11.143Z,98507.72
2022-11-14T05:48:38.466Z,98516.41
2022-11-14T05:51:06.965Z,98508.69
2022-11-14T05:53:35.120Z,98508.72
2022-11-14T05:56:06.195Z,98507.03
2022-11-14T05:58:34.331Z,98498.28
2022-11-14T06:01:09.533Z,98501.59
2022-11-14T06:03:39.619Z,98504.91
2022-11-14T06:06:08.384Z,98501.44
2022-11-14T06:08:35.719Z,98505.69
2022-11-14T06:11:12.465Z,98497.91
2022-11-14T06:13:39.472Z,98503.88
2022-11-14T06:16:09.683Z,98514.22
2022-11-14T06:18:36.739Z,98506.41
2022-11-14T06:21:06.631Z,98512.53
2022-11-14T06:23:33.346Z,98507.50
2022-11-14T06:26:01.974Z,98504.72
2022-11-14T06:28:29.570Z,98509.09
2022-11-14T06:31:03.809Z,98503.84
2022-11-14T06:33:34.598Z,98506.50
2022-11-14T06:36:03.484Z,98510.84
2022-11-14T06:38:35.439Z,98512.59
2022-11-14T06:41:20.229Z,98519.38
2022-11-14T06:43:49.006Z,98520.97
2022-11-14T06:46:19.349Z,98519.25
2022-11-14T06:48:47.372Z,98525.34
2022-11-14T06:51:15.540Z,98531.22
2022-11-14T06:53:42.927Z,98523.66
2022-11-14T06:56:12.028Z,98522.72
2022-11-14T06:58:41.907Z,98531.38
2022-11-14T07:01:11.788Z,98523.63
2022-11-14T07:03:38.361Z,98526.13
2022-11-14T07:06:05.905Z,98528.66
2022-11-14T07:08:33.367Z,98528.63
2022-11-14T07:11:05.484Z,98521.72
2022-11-14T07:13:33.066Z,98526.13
2022-11-14T07:16:00.072Z,98522.72
2022-11-14T07:18:27.197Z,98527.09
2022-11-14T07:21:06.155Z,98524.59
2022-11-14T07:23:36.079Z,98522.97
2022-11-14T07:26:07.140Z,98525.81
2022-11-14T07:28:42.623Z,98525.94
2022-11-14T07:31:14.911Z,98514.91
2022-11-14T07:33:42.794Z,98523.69
2022-11-14T07:36:10.685Z,98524.63
2022-11-14T07:38:38.413Z,98526.41
2022-11-14T07:41:08.419Z,98538.75
2022-11-14T07:43:35.100Z,98535.28
2022-11-14T07:46:06.761Z,98536.59
2022-11-14T07:48:34.051Z,98523.91
2022-11-14T07:51:02.534Z,98527.44
2022-11-14T07:53:29.437Z,98536.25
2022-11-14T07:55:57.423Z,98533.03
2022-11-14T07:58:24.693Z,98531.31
2022-11-14T08:00:51.672Z,98530.50
2022-11-14T08:03:18.448Z,98530.59
2022-11-14T08:05:45.265Z,98533.16
2022-11-14T08:08:11.847Z,98531.56
2022-11-14T08:10:38.689Z,98531.72
2022-11-14T08:15:54.529Z,98530.97
2022-11-14T08:18:21.595Z,98530.31
2022-11-14T08:20:48.714Z,98525.94
2022-11-14T08:23:15.657Z,98517.41
2022-11-14T08:25:42.837Z,98503.63
2022-11-14T08:28:09.654Z,98506.63
2022-11-14T08:30:36.324Z,98499.09
2022-11-14T08:33:04.555Z,98503.50
2022-11-14T08:35:32.757Z,98508.00
2022-11-14T08:38:01.545Z,98492.53
2022-11-14T08:40:28.243Z,98496.94
2022-11-14T08:43:02.193Z,98489.31
2022-11-14T08:45:29.984Z,98489.19
2022-11-14T08:47:57.390Z,98487.66
2022-11-14T08:50:24.164Z,98491.28
2022-11-14T08:52:52.259Z,98489.63
2022-11-14T08:55:20.540Z,98502.59
2022-11-14T08:57:49.764Z,98493.25
2022-11-14T09:00:17.438Z,98491.72
2022-11-14T09:02:44.843Z,98489.34
2022-11-14T09:05:11.696Z,98483.50
2022-11-14T09:07:41.095Z,98485.31
2022-11-14T09:10:08.251Z,98479.25
2022-11-14T09:12:35.258Z,98473.09
2022-11-14T09:15:02.106Z,98472.97
2022-11-14T09:17:28.821Z,98464.28
2022-11-14T09:19:55.981Z,98464.94
2022-11-14T09:22:22.853Z,98469.19
2022-11-14T09:24:49.662Z,98456.72
2022-11-14T09:27:17.332Z,98443.28
2022-11-14T09:29:44.442Z,98445.75
2022-11-14T09:32:11.115Z,98453.16
2022-11-14T09:34:37.917Z,98449.38
2022-11-14T09:37:04.632Z,98450.28
2022-11-14T09:39:31.380Z,98450.34
2022-11-14T09:42:17.480Z,98447.25
2022-11-14T09:44:56.422Z,98447.31
2022-11-14T09:47:30.443Z,98453.69
2022-11-14T09:50:07.577Z,98442.59
2022-11-14T09:52:37.021Z,98449.06
2022-11-14T09:55:17.568Z,98443.06
2022-11-14T09:57:46.196Z,98438.63
2022-11-14T10:00:17.259Z,98440.47
2022-11-14T10:03:08.991Z,98448.81
2022-11-14T10:06:19.080Z,98453.63
2022-11-14T10:08:54.360Z,98465.66
2022-11-14T10:11:35.051Z,98466.00
2022-11-14T10:14:01.577Z,98445.00
2022-11-14T10:16:43.405Z,98442.72
2022-11-14T10:19:10.932Z,98438.34
2022-11-14T10:22:11.371Z,98439.78
2022-11-14T10:25:14.010Z,98440.56
2022-11-14T10:27:59.768Z,98437.03
2022-11-14T10:30:40.485Z,98425.38
2022-11-14T10:33:47.297Z,98420.03
2022-11-14T10:36:19.543Z,98432.34
2022-11-14T10:39:00.540Z,98426.25
2022-11-14T10:41:55.010Z,98420.50
2022-11-14T10:44:22.172Z,98425.66
2022-11-14T10:46:54.133Z,98430.53
2022-11-14T10:49:22.749Z,98429.66
2022-11-14T10:51:55.949Z,98423.69
2022-11-14T10:54:28.367Z,98424.00
2022-11-14T10:56:55.671Z,98425.34
2022-11-14T10:59:22.897Z,98431.72
2022-11-14T11:01:55.392Z,98432.00
2022-11-14T11:04:42.276Z,98431.81
2022-11-14T11:07:09.045Z,98427.28
2022-11-14T11:09:56.254Z,98429.50
2022-11-14T11:12:25.648Z,98423.09
2022-11-14T11:15:14.290Z,98419.19
2022-11-14T11:17:54.810Z,98416.25
2022-11-14T11:20:35.304Z,98414.47
2022-11-14T11:23:25.187Z,98415.84
2022-11-14T11:26:25.537Z,98413.91
2022-11-14T11:29:08.933Z,98431.22
2022-11-14T11:31:52.709Z,98420.78
2022-11-14T11:34:27.928Z,98427.66
2022-11-14T11:37:20.310Z,98422.31
2022-11-14T11:39:52.849Z,98429.06
2022-11-14T11:43:12.261Z,98420.59
2022-11-14T11:45:20.342Z,98424.69
2022-11-14T11:47:55.353Z,98423.31
2022-11-14T11:50:24.758Z,98409.94
2022-11-14T11:53:08.405Z,98408.25
2022-11-14T11:55:43.328Z,98407.13
2022-11-14T11:58:09.808Z,98404.00
2022-11-14T12:00:36.477Z,98402.78
2022-11-14T12:03:03.255Z,98397.31
2022-11-14T12:05:34.793Z,98401.84
2022-11-14T12:08:09.914Z,98400.53
2022-11-14T12:10:39.755Z,98396.03
2022-11-14T12:13:15.155Z,98389.25
2022-11-14T12:15:41.705Z,98392.91
2022-11-14T12:18:14.191Z,98392.28
2022-11-14T12:21:04.672Z,98392.06
2022-11-14T12:24:02.700Z,98390.31
2022-11-14T12:26:57.367Z,98384.66
2022-11-14T12:29:26.749Z,98380.41
2022-11-14T12:32:06.810Z,98384.56
2022-11-14T12:34:44.026Z,98386.84
2022-11-14T12:37:38.569Z,98391.09
2022-11-14T12:40:22.543Z,98391.88
2022-11-14T12:42:49.671Z,98390.97
2022-11-14T12:45:41.222Z,98384.25
2022-11-14T12:48:25.979Z,98376.19
2022-11-14T12:50:57.508Z,98368.44
2022-11-14T12:53:39.509Z,98375.88
2022-11-14T12:56:24.985Z,98366.94
2022-11-14T12:59:10.038Z,98360.28
2022-11-14T13:01:51.953Z,98369.13
2022-11-14T13:04:42.829Z,98365.66
2022-11-14T13:07:18.604Z,98365.78
2022-11-14T13:10:12.242Z,98358.72
2022-11-14T13:12:58.276Z,98353.09
2022-11-14T13:16:12.830Z,98345.72
2022-11-14T13:19:19.867Z,98356.03
2022-11-14T13:22:11.039Z,98360.47
2022-11-14T13:24:58.487Z,98356.63
2022-11-14T13:28:05.465Z,98345.44
2022-11-14T13:31:00.795Z,98346.00
2022-11-14T13:33:44.866Z,98349.13
2022-11-14T13:36:25.203Z,98353.63
2022-11-14T13:39:10.050Z,98350.31
2022-11-14T13:41:56.820Z,98352.38
2022-11-14T13:44:49.164Z,98349.66
2022-11-14T13:47:22.078Z,98345.16
2022-11-14T13:50:31.350Z,98354.56
2022-11-14T13:52:58.851Z,98349.41
2022-11-14T13:55:52.386Z,98346.63
2022-11-14T13:58:24.897Z,98342.44
2022-11-14T14:01:11.951Z,98353.38
2022-11-14T14:03:45.833Z,98351.66
2022-11-14T14:06:44.779Z,98351.03
2022-11-14T14:09:20.152Z,98352.06
2022-11-14T14:12:07.067Z,98359.53
2022-11-14T14:14:57.667Z,98356.94
2022-11-14T14:17:27.318Z,98350.03
2022-11-14T14:20:12.200Z,98339.66
2022-11-14T14:22:47.843Z,98334.44
2022-11-14T14:25:17.618Z,98330.78
2022-11-14T14:28:09.221Z,98326.56
2022-11-14T14:30:35.971Z,98331.22
2022-11-14T14:33:08.750Z,98324.41
2022-11-14T14:35:40.620Z,98320.91
2022-11-14T14:38:23.239Z,98321.06
2022-11-14T14:40:50.106Z,98320.31
2022-11-14T14:43:30.085Z,98307.34
2022-11-14T14:45:57.091Z,98319.66
2022-11-14T14:48:27.070Z,98324.22
2022-11-14T14:50:56.167Z,98318.19
2022-11-14T14:53:30.093Z,98319.09
2022-11-14T14:56:02.775Z,98316.75
2022-11-14T14:58:33.233Z,98315.03
2022-11-14T15:01:03.274Z,98306.34
2022-11-14T15:03:42.983Z,98298.66
2022-11-14T15:06:34.886Z,98300.56
2022-11-14T15:09:17.587Z,98298.78
2022-11-14T15:11:48.249Z,98298.13
2022-11-14T15:14:22.257Z,98304.16
2022-11-14T15:16:51.020Z,98306.13
2022-11-14T15:19:23.049Z,98299.38
2022-11-14T15:22:05.938Z,98297.66
2022-11-14T15:24:32.859Z,98298.66
2022-11-14T15:27:04.805Z,98291.91
2022-11-14T15:29:33.302Z,98292.03
2022-11-14T15:32:02.569Z,98296.59
2022-11-14T15:34:34.773Z,98302.00
2022-11-14T15:37:10.610Z,98291.63
2022-11-14T15:39:38.265Z,98291.84
2022-11-14T15:42:29.437Z,98287.59
2022-11-14T15:44:56.436Z,98294.84
2022-11-14T15:47:26.064Z,98290.63
2022-11-14T15:50:05.032Z,98278.53
2022-11-14T15:52:39.421Z,98281.19
2022-11-14T15:55:24.494Z,98280.41
2022-11-14T15:58:06.696Z,98286.50
2022-11-14T16:00:43.143Z,98276.16
2022-11-14T16:03:12.613Z,98268.34
2022-11-14T16:05:39.301Z,98270.09
2022-11-14T16:08:05.908Z,98281.41
2022-11-14T16:10:32.585Z,98273.59
2022-11-14T16:12:59.171Z,98286.78
2022-11-14T16:15:25.864Z,98288.53
2022-11-14T16:17:52.444Z,98287.72
2022-11-14T16:20:21.659Z,98279.88
2022-11-14T16:22:49.629Z,98274.47
2022-11-14T16:25:22.666Z,98275.66
2022-11-14T16:27:49.362Z,98273.56
2022-11-14T16:30:18.966Z,98262.53
2022-11-14T16:32:48.789Z,98261.28
2022-11-14T16:35:18.182Z,98262.81
2022-11-14T16:37:45.184Z,98258.06
2022-11-14T16:40:23.646Z,98258.06
2022-11-14T16:42:50.518Z,98247.53
2022-11-14T16:45:20.510Z,98252.34
2022-11-14T16:47:48.142Z,98251.91
2022-11-14T16:50:14.996Z,98252.22
2022-11-14T16:52:41.684Z,98251.81
2022-11-14T16:55:10.142Z,98249.94
2022-11-14T16:57:37.405Z,98250.97
2022-11-14T17:00:10.751Z,98244.91
2022-11-14T17:02:37.441Z,98246.38
2022-11-14T17:05:04.244Z,98261.00
2022-11-14T17:07:33.085Z,98247.03
2022-11-14T17:10:00.844Z,98250.59
2022-11-14T17:12:28.478Z,98252.03
2022-11-14T17:14:55.167Z,98253.91
2022-11-14T17:17:21.734Z,98257.09
2022-11-14T17:19:48.566Z,98257.16
2022-11-14T17:22:16.587Z,98256.09
2022-11-14T17:24:43.319Z,98260.50
2022-11-14T17:27:12.839Z,98264.13
2022-11-14T17:29:39.712Z,98265.31
2022-11-14T17:32:06.385Z,98269.84
2022-11-14T17:34:33.057Z,98268.31
2022-11-14T17:36:59.701Z,98270.38
2022-11-14T17:39:26.438Z,98271.25
2022-11-14T17:41:53.409Z,98261.59
2022-11-14T17:44:20.024Z,98268.44
2022-11-14T17:46:47.629Z,98267.34
2022-11-14T17:49:14.300Z,98259.25
2022-11-14T17:51:40.875Z,98266.28
2022-11-14T17:54:07.545Z,98271.56
2022-11-14T17:56:34.235Z,98263.66
2022-11-14T17:59:00.819Z,98266.47
2022-11-14T18:01:30.308Z,98259.41
2022-11-14T18:04:01.642Z,98265.59
2022-11-14T18:06:29.792Z,98263.88
2022-11-14T18:08:56.391Z,98261.13
2022-11-14T18:11:23.038Z,98257.88
2022-11-14T18:13:54.405Z,98255.38
2022-11-14T18:16:21.209Z,98248.38
2022-11-14T18:18:47.896Z,98252.03
2022-11-14T18:21:19.953Z,98250.25
2022-11-14T18:23:55.168Z,98254.75
2022-11-14T18:26:27.272Z,98242.59
2022-11-14T18:28:55.268Z,98246.13
2022-11-14T18:31:21.887Z,98236.50
2022-11-14T18:33:48.653Z,98229.75
2022-11-14T18:36:15.716Z,98228.97
2022-11-14T18:38:42.574Z,98224.91
2022-11-14T18:41:13.090Z,98220.47
2022-11-14T18:43:40.031Z,98220.66
2022-11-14T18:46:08.949Z,98235.50
2022-11-14T18:48:39.577Z,98231.28
2022-11-14T18:51:11.764Z,98230.44
2022-11-14T18:53:38.580Z,98245.28
2022-11-14T18:56:13.898Z,98226.19
2022-11-14T18:58:41.782Z,98236.41
2022-11-14T19:01:37.584Z,98238.25
2022-11-14T19:04:06.792Z,98243.59
2022-11-14T19:06:35.649Z,98240.94
2022-11-14T19:09:10.839Z,98243.81
2022-11-14T19:11:57.256Z,98243.06
2022-11-14T19:14:24.202Z,98251.56
2022-11-14T19:16:50.847Z,98255.25
2022-11-14T19:19:17.464Z,98235.28
2022-11-14T19:21:44.533Z,98229.25
2022-11-14T19:24:11.196Z,98233.63
2022-11-14T19:26:37.913Z,98228.38
2022-11-14T19:29:07.056Z,98225.94
2022-11-14T19:31:34.001Z,98228.56
2022-11-14T19:34:01.286Z,98220.84
2022-11-14T19:36:57.611Z,98226.22
2022-11-14T19:39:14.764Z,98232.34
2022-11-14T19:41:41.462Z,98235.00
2022-11-14T19:44:08.232Z,98232.31
2022-11-14T19:46:36.889Z,98225.28
2022-11-14T19:49:04.156Z,98225.25
2022-11-14T19:51:32.942Z,98228.81
2022-11-14T19:54:01.521Z,98228.84
2022-11-14T19:56:28.291Z,98241.03
2022-11-14T19:58:58.756Z,98228.81
2022-11-14T20:01:27.648Z,98233.28
2022-11-14T20:03:56.983Z,98231.38
2022-11-14T20:06:27.632Z,98233.97
2022-11-14T20:08:55.393Z,98229.53
2022-11-14T20:11:23.651Z,98218.19
2022-11-14T20:13:50.194Z,98221.56
2022-11-14T20:16:23.274Z,98219.81
2022-11-14T20:18:57.418Z,98215.16
2022-11-14T20:21:26.756Z,98213.31
2022-11-14T20:23:53.796Z,98218.44
2022-11-14T20:26:21.114Z,98219.22
2022-11-14T20:28:50.432Z,98208.66
2022-11-14T20:31:20.441Z,98208.72
2022-11-14T20:33:49.162Z,98210.41
2022-11-14T20:36:18.713Z,98222.63
2022-11-14T20:38:45.641Z,98220.84
2022-11-14T20:41:12.803Z,98220.78
2022-11-14T20:43:39.980Z,98227.78
2022-11-14T20:46:12.719Z,98218.16
2022-11-14T20:48:40.271Z,98215.44
2022-11-14T20:51:19.639Z,98216.31
2022-11-14T20:53:47.667Z,98218.69
2022-11-14T20:56:15.025Z,98221.38
2022-11-14T20:58:42.596Z,98213.63
2022-11-14T21:01:09.768Z,98210.13
2022-11-14T21:03:37.038Z,98212.66
2022-11-14T21:06:04.600Z,98218.81
2022-11-14T21:08:36.427Z,98213.38
2022-11-14T21:11:05.717Z,98216.84
2022-11-14T21:13:54.080Z,98221.28
2022-11-14T21:16:21.356Z,98222.13
2022-11-14T21:18:48.419Z,98210.78
2022-11-14T21:21:18.067Z,98210.75
2022-11-14T21:23:46.046Z,98216.84
2022-11-14T21:26:15.491Z,98208.84
2022-11-14T21:28:44.107Z,98211.28
2022-11-14T21:31:25.235Z,98213.03
2022-11-14T21:33:55.285Z,98201.66
2022-11-14T21:36:43.678Z,98205.66
2022-11-14T21:39:08.821Z,98201.13
2022-11-14T21:41:35.401Z,98192.44
2022-11-14T21:44:03.484Z,98189.75
2022-11-14T21:46:30.384Z,98193.25
2022-11-14T21:48:57.858Z,98191.34
2022-11-14T21:51:27.245Z,98182.66
2022-11-14T21:53:56.410Z,98180.56
2022-11-14T21:56:25.819Z,98185.56
2022-11-14T21:59:12.985Z,98172.34
2022-11-14T22:02:10.299Z,98184.41
2022-11-14T22:04:37.669Z,98173.84
2022-11-14T22:07:06.509Z,98166.00
2022-11-14T22:09:34.015Z,98178.06
2022-11-14T22:12:01.198Z,98182.53
2022-11-14T22:14:27.864Z,98185.09
2022-11-14T22:16:54.393Z,98178.25
2022-11-14T22:19:21.054Z,98181.91
2022-11-14T22:21:47.782Z,98183.72
2022-11-14T22:24:14.414Z,98183.44
2022-11-14T22:26:41.513Z,98184.13
2022-11-14T22:29:08.976Z,98180.59
2022-11-14T22:31:37.507Z,98182.41
2022-11-14T22:34:04.161Z,98177.88
2022-11-14T22:36:30.911Z,98181.19
2022-11-14T22:38:57.968Z,98181.19
2022-11-14T22:41:30.474Z,98169.69
2022-11-14T22:43:59.423Z,98168.88
2022-11-14T22:46:27.482Z,98176.75
2022-11-14T22:48:54.898Z,98163.34
2022-11-14T22:51:26.578Z,98154.41
2022-11-14T22:53:58.030Z,98168.34
2022-11-14T22:56:27.766Z,98163.94
2022-11-14T22:58:55.208Z,98165.81
2022-11-14T23:01:31.244Z,98160.13
2022-11-14T23:04:00.745Z,98159.16
2022-11-14T23:06:28.954Z,98152.22
2022-11-14T23:08:55.946Z,98162.44
2022-11-14T23:11:25.629Z,98151.84
2022-11-14T23:13:54.896Z,98155.25
2022-11-14T23:16:24.088Z,98151.72
2022-11-14T23:18:53.217Z,98149.09
2022-11-14T23:21:22.549Z,98156.97
2022-11-14T23:23:54.276Z,98151.72
2022-11-14T23:26:21.616Z,98153.44
2022-11-14T23:28:49.303Z,98155.47
2022-11-14T23:31:19.514Z,98156.31
2022-11-14T23:33:50.682Z,98144.66
2022-11-14T23:36:17.979Z,98148.13
2022-11-14T23:38:44.672Z,98153.16
2022-11-14T23:41:19.736Z,98143.41
2022-11-14T23:43:47.471Z,98154.19
2022-11-14T23:46:14.629Z,98151.38
2022-11-14T23:48:41.216Z,98143.13
2022-11-14T23:51:07.960Z,98135.09
2022-11-14T23:53:34.686Z,98147.41
2022-11-14T23:56:02.451Z,98154.47
2022-11-14T23:58:30.311Z,98152.75
